Time;durP1;ratioP1;P1;durP2;ratioP2;P2;SDS_P1;SDS_P2;PMS_P1;PMS_P2;Temp;Humidity;BMP_temperature;BMP_pressure;BME280_temperature;BME280_humidity;BME280_pressure;Samples;Min_cycle;Max_cycle;Signal;HPM_P1;HPM_P2
2021/06/12 00:00:18;;;;;;;20.17;6.97;;;;;;;19.68;52.92;100635.42;1705542;82;25799;-65
2021/06/12 00:02:45;;;;;;;12.98;7.65;;;;;;;19.65;53.05;100631.10;1711164;82;25765;-65
2021/06/12 00:05:12;;;;;;;14.60;7.67;;;;;;;19.59;53.20;100628.88;1744531;80;27361;-65
2021/06/12 00:07:41;;;;;;;22.85;7.40;;;;;;;19.58;53.33;100631.73;1746603;80;25776;-65
2021/06/12 00:10:16;;;;;;;19.73;8.38;;;;;;;19.48;53.38;100624.77;1739207;80;25827;-65
2021/06/12 00:12:47;;;;;;;17.45;7.42;;;;;;;19.49;53.57;100641.95;1747999;80;25923;-65
2021/06/12 00:15:16;;;;;;;17.73;7.58;;;;;;;19.39;53.65;100642.69;1739866;80;25786;-65
2021/06/12 00:17:44;;;;;;;15.65;7.60;;;;;;;19.30;53.92;100639.34;1738637;80;27466;-65
2021/06/12 00:20:21;;;;;;;14.38;8.00;;;;;;;19.25;54.08;100638.84;1742510;80;25744;-65
2021/06/12 00:22:48;;;;;;;19.80;8.60;;;;;;;19.18;54.47;100641.68;1736589;80;25739;-65
2021/06/12 00:25:23;;;;;;;14.15;8.33;;;;;;;19.12;54.71;100641.67;1736608;80;26380;-65
2021/06/12 00:27:49;;;;;;;11.85;7.17;;;;;;;19.07;54.92;100635.73;1740179;80;25802;-65
2021/06/12 00:30:16;;;;;;;11.73;7.42;;;;;;;19.04;55.11;100634.63;1736397;80;27482;-65
2021/06/12 00:32:44;;;;;;;10.85;6.75;;;;;;;19.03;55.25;100633.38;1738893;80;25857;-64
2021/06/12 00:35:14;;;;;;;10.75;6.62;;;;;;;19.01;55.26;100628.56;1727624;80;25739;-65
2021/06/12 00:37:43;;;;;;;11.20;6.80;;;;;;;18.99;55.46;100628.69;1738125;80;25798;-67
2021/06/12 00:40:17;;;;;;;12.78;6.90;;;;;;;18.98;55.69;100628.31;1736455;80;25730;-65
2021/06/12 00:42:44;;;;;;;13.95;7.15;;;;;;;18.99;55.72;100636.83;1700422;82;27452;-64
2021/06/12 00:45:17;;;;;;;12.47;7.00;;;;;;;19.03;55.87;100636.96;1677474;83;25812;-65
2021/06/12 00:47:42;;;;;;;10.72;7.00;;;;;;;19.05;55.86;100632.27;1686866;83;25924;-65
2021/06/12 00:50:10;;;;;;;14.23;6.95;;;;;;;19.07;55.91;100630.80;1703653;82;26409;-65
2021/06/12 00:52:39;;;;;;;10.25;6.55;;;;;;;19.09;55.91;100629.69;1702826;82;25972;-65
2021/06/12 00:55:09;;;;;;;10.85;6.80;;;;;;;19.16;55.93;100636.00;1700537;82;27554;-65
2021/06/12 00:57:37;;;;;;;14.75;5.92;;;;;;;19.19;55.79;100631.67;1696435;83;25784;-64
2021/06/12 01:00:07;;;;;;;10.38;6.37;;;;;;;19.21;55.72;100630.57;1737777;80;26771;-67
2021/06/12 01:02:35;;;;;;;10.48;6.45;;;;;;;19.23;55.74;100629.09;1731367;80;25867;-64
2021/06/12 01:05:06;;;;;;;9.65;6.25;;;;;;;19.25;55.64;100625.75;1738486;80;25825;-65
2021/06/12 01:07:34;;;;;;;8.58;6.70;;;;;;;19.26;55.58;100623.41;1730222;80;27489;-64
2021/06/12 01:10:00;;;;;;;8.55;6.00;;;;;;;19.29;55.49;100625.39;1732318;80;25703;-65
2021/06/12 01:12:53;;;;;;;8.78;5.60;;;;;;;19.32;55.45;100622.92;1734459;80;25767;-65
2021/06/12 01:15:22;;;;;;;9.05;5.78;;;;;;;19.34;55.38;100616.87;1740216;80;25815;-65
2021/06/12 01:18:00;;;;;;;10.78;6.28;;;;;;;19.39;55.30;100620.08;1736752;80;33229;-65
2021/06/12 01:21:03;;;;;;;10.15;6.12;;;;;;;19.41;55.17;100619.46;1741338;80;27497;-64
2021/06/12 01:24:12;;;;;;;12.18;5.90;;;;;;;19.42;55.12;100621.19;1733187;80;26234;-65
2021/06/12 01:27:19;;;;;;;12.60;5.95;;;;;;;19.42;55.05;100618.47;1735158;79;25824;-64
2021/06/12 01:30:22;;;;;;;8.15;6.70;;;;;;;19.41;54.97;100605.88;1735654;79;26258;-65
2021/06/12 01:32:53;;;;;;;14.30;6.45;;;;;;;19.38;54.92;100604.27;1734504;80;25813;-65
2021/06/12 01:35:45;;;;;;;10.40;6.10;;;;;;;19.35;54.91;100593.64;1738310;80;27412;-64
2021/06/12 01:38:16;;;;;;;7.92;6.22;;;;;;;19.34;54.92;100597.84;1730282;80;25859;-65
2021/06/12 01:40:46;;;;;;;10.85;6.72;;;;;;;19.32;54.94;100592.53;1736556;80;25824;-65
2021/06/12 01:43:14;;;;;;;7.65;5.97;;;;;;;19.33;54.94;100587.95;1732177;80;25872;-65
2021/06/12 01:45:42;;;;;;;8.73;6.55;;;;;;;19.34;54.92;100586.97;1733754;80;25884;-65
2021/06/12 01:48:11;;;;;;;7.22;6.37;;;;;;;19.35;54.91;100577.83;1717059;80;27373;-65
2021/06/12 01:50:39;;;;;;;9.80;5.75;;;;;;;19.36;54.89;100574.98;1725974;80;25981;-65
2021/06/12 01:53:09;;;;;;;10.65;6.80;;;;;;;19.36;54.87;100575.48;1724499;80;25856;-65
2021/06/12 01:55:39;;;;;;;9.33;6.08;;;;;;;19.36;54.89;100570.05;1742128;80;25937;-65
2021/06/12 01:58:10;;;;;;;7.47;5.40;;;;;;;19.36;54.91;100564.11;1723957;80;25916;-65
2021/06/12 02:00:39;;;;;;;10.60;6.30;;;;;;;19.38;54.92;100571.65;1736513;80;27438;-64
2021/06/12 02:03:05;;;;;;;10.15;6.08;;;;;;;19.39;54.94;100572.52;1704167;82;25847;-65
2021/06/12 02:05:33;;;;;;;9.85;7.03;;;;;;;19.41;54.97;100567.81;1658281;84;26753;-65
2021/06/12 02:08:02;;;;;;;8.80;6.20;;;;;;;19.39;54.97;100569.80;1675004;83;25825;-65
2021/06/12 02:10:31;;;;;;;11.33;6.87;;;;;;;19.37;55.00;100568.56;1678603;83;25761;-65
2021/06/12 02:12:59;;;;;;;9.98;7.15;;;;;;;19.34;55.05;100562.51;1688651;83;27491;-65
2021/06/12 02:15:30;;;;;;;14.53;8.53;;;;;;;19.32;55.16;100559.91;1693889;83;52837;-65
2021/06/12 02:18:03;;;;;;;;;;;;;;;19.31;55.22;100555.96;1686841;83;25815;-65
2021/06/12 02:20:32;;;;;;;13.32;7.55;;;;;;;19.28;55.24;100559.80;1693832;83;26570;-66
2021/06/12 02:23:01;;;;;;;17.92;8.38;;;;;;;19.20;55.29;100550.53;1671407;82;25878;-65
2021/06/12 02:25:28;;;;;;;9.90;7.42;;;;;;;19.18;55.34;100549.79;1678096;83;27375;-65
2021/06/12 02:28:00;;;;;;;11.45;7.97;;;;;;;19.13;55.48;100548.30;1707569;81;25744;-65
2021/06/12 02:30:29;;;;;;;11.15;7.97;;;;;;;19.10;55.54;100545.84;1715487;81;25735;-65
2021/06/12 02:33:03;;;;;;;12.43;8.73;;;;;;;19.09;55.65;100545.95;1702658;81;26397;-65
2021/06/12 02:35:33;;;;;;;13.70;7.60;;;;;;;19.03;55.68;100540.52;1705715;81;26358;-65
2021/06/12 02:37:59;;;;;;;10.18;7.80;;;;;;;18.98;55.81;100539.16;1696056;81;27365;-65
2021/06/12 02:40:26;;;;;;;14.00;7.42;;;;;;;18.95;55.90;100544.84;1706891;81;27210;-65
2021/06/12 02:42:52;;;;;;;9.23;6.95;;;;;;;18.90;55.96;100551.13;1700610;81;25858;-66
2021/06/12 02:45:20;;;;;;;12.33;8.08;;;;;;;18.83;56.01;100553.47;1710474;81;25711;-65
2021/06/12 02:48:00;;;;;;;11.48;8.05;;;;;;;18.80;56.10;100544.20;1694088;81;25847;-65
2021/06/12 02:50:32;;;;;;;13.90;7.47;;;;;;;18.76;56.20;100544.08;1705788;81;27569;-65
2021/06/12 02:53:04;;;;;;;11.68;7.80;;;;;;;18.72;56.26;100545.30;1697207;81;25757;-65
2021/06/12 02:55:35;;;;;;;15.25;8.53;;;;;;;18.71;56.34;100544.94;1708075;80;25899;-65
2021/06/12 02:58:03;;;;;;;13.85;8.40;;;;;;;18.70;56.38;100547.28;1699747;81;25845;-65
2021/06/12 03:00:31;;;;;;;10.63;7.97;;;;;;;18.69;56.45;100552.33;1706049;80;25754;-65
2021/06/12 03:02:57;;;;;;;18.55;8.20;;;;;;;18.67;56.47;100544.31;1710010;80;26710;-65
2021/06/12 03:05:29;;;;;;;11.10;8.40;;;;;;;18.65;56.54;100545.41;1702795;81;26445;-65
2021/06/12 03:07:58;;;;;;;13.83;8.30;;;;;;;18.64;56.61;100536.41;1702926;81;26061;-65
2021/06/12 03:10:28;;;;;;;16.85;9.53;;;;;;;18.65;56.66;100535.42;1710568;80;25768;-65
2021/06/12 03:12:57;;;;;;;15.90;8.88;;;;;;;18.64;56.68;100535.55;1699301;81;25947;-65
2021/06/12 03:15:24;;;;;;;16.93;9.48;;;;;;;18.64;56.74;100530.11;1696381;80;27607;-65
2021/06/12 03:17:52;;;;;;;16.40;8.60;;;;;;;18.62;56.77;100529.37;1661063;81;27300;-65
2021/06/12 03:20:20;;;;;;;17.80;9.38;;;;;;;18.63;56.86;100536.03;1695609;81;25789;-65
2021/06/12 03:22:49;;;;;;;15.00;9.45;;;;;;;18.66;56.86;100541.72;1716239;81;25799;-65
2021/06/12 03:25:24;;;;;;;13.40;9.60;;;;;;;18.65;56.86;100538.63;1732560;80;25754;-65
2021/06/12 03:27:50;;;;;;;13.72;9.73;;;;;;;18.66;56.94;100543.08;1729289;80;27384;-65
2021/06/12 03:30:18;;;;;;;20.48;10.98;;;;;;;18.67;56.99;100544.80;1732192;80;25877;-65
2021/06/12 03:32:46;;;;;;;15.08;9.00;;;;;;;18.68;56.98;100543.33;1720865;80;25891;-65
2021/06/12 03:35:14;;;;;;;19.42;9.55;;;;;;;18.66;57.00;100542.58;1719864;80;26404;-65
2021/06/12 03:37:41;;;;;;;19.55;9.45;;;;;;;18.67;57.09;100535.30;1722910;80;25727;-65
2021/06/12 03:40:10;;;;;;;16.30;10.08;;;;;;;18.67;57.15;100539.38;1734226;80;27374;-65
2021/06/12 03:42:40;;;;;;;15.75;9.85;;;;;;;18.69;57.19;100535.55;1729377;80;26342;-65
2021/06/12 03:45:12;;;;;;;18.02;9.45;;;;;;;18.71;57.23;100532.22;1725400;80;25959;-65
2021/06/12 03:47:41;;;;;;;15.48;9.60;;;;;;;18.72;57.25;100531.23;1722869;80;27389;-65
2021/06/12 03:50:14;;;;;;;13.60;10.30;;;;;;;18.74;57.29;100526.55;1719827;80;26065;-65
2021/06/12 03:52:41;;;;;;;15.53;9.70;;;;;;;18.76;57.33;100525.07;1729343;80;27381;-65
2021/06/12 03:55:10;;;;;;;17.37;10.60;;;;;;;18.77;57.35;100523.59;1730850;80;25953;-65
2021/06/12 03:57:40;;;;;;;17.57;9.50;;;;;;;18.80;57.33;100519.27;1726798;80;26560;-65
2021/06/12 04:00:10;;;;;;;17.70;9.80;;;;;;;18.84;57.39;100517.18;1719108;80;26314;-65
2021/06/12 04:02:40;;;;;;;15.00;9.28;;;;;;;18.89;57.39;100515.45;1698133;82;25760;-65
2021/06/12 04:05:08;;;;;;;14.87;10.05;;;;;;;18.94;57.35;100514.09;1732221;80;27413;-65
2021/06/12 04:07:38;;;;;;;11.57;9.03;;;;;;;19.00;57.33;100516.33;1725713;80;26014;-65
2021/06/12 04:10:08;;;;;;;15.83;10.30;;;;;;;19.04;57.40;100522.38;1729006;80;25773;-65
2021/06/12 04:12:33;;;;;;;18.98;9.83;;;;;;;19.08;57.40;100513.85;1727498;80;26347;-65
2021/06/12 04:15:02;;;;;;;22.42;10.53;;;;;;;19.14;57.37;100518.79;1727990;80;25755;-65
2021/06/12 04:17:28;;;;;;;14.73;9.35;;;;;;;19.18;57.40;100518.05;1730171;80;27405;-65
2021/06/12 04:19:57;;;;;;;13.90;9.03;;;;;;;19.23;57.40;100514.46;1730944;80;25787;-65
2021/06/12 04:22:23;;;;;;;13.85;9.13;;;;;;;19.30;57.36;100514.83;1724374;80;26018;-65
2021/06/12 04:24:48;;;;;;;24.35;9.25;;;;;;;19.38;57.37;100513.70;1717928;81;25795;-65
2021/06/12 04:27:16;;;;;;;12.47;9.45;;;;;;;19.45;57.33;100506.77;1719689;81;25735;-65
2021/06/12 04:29:42;;;;;;;10.68;8.53;;;;;;;19.49;57.32;100506.89;1719161;81;27485;-65
2021/06/12 04:32:08;;;;;;;14.63;9.33;;;;;;;19.53;57.35;100509.75;1687324;82;28073;-65
2021/06/12 04:34:34;;;;;;;10.55;9.13;;;;;;;19.59;57.28;100507.02;1664641;84;25736;-65
2021/06/12 04:37:02;;;;;;;14.33;10.40;;;;;;;19.61;57.31;100507.77;1719033;81;25756;-65
2021/06/12 04:39:29;;;;;;;16.93;10.03;;;;;;;19.64;57.29;100509.73;1725763;80;25748;-65
2021/06/12 04:41:57;;;;;;;15.53;9.63;;;;;;;19.67;57.30;100508.61;1716640;81;27999;-65
2021/06/12 04:44:24;;;;;;;11.33;9.93;;;;;;;19.72;57.30;100510.45;1726684;81;26034;-65
2021/06/12 04:46:50;;;;;;;21.90;9.65;;;;;;;19.69;57.23;100506.13;1719581;80;25813;-65
2021/06/12 04:49:19;;;;;;;17.85;10.03;;;;;;;19.72;57.26;100508.59;1710567;81;26504;-65
2021/06/12 04:51:44;;;;;;;14.35;10.18;;;;;;;19.72;57.20;100505.88;1725557;81;25870;-65
2021/06/12 04:54:12;;;;;;;17.55;9.10;;;;;;;19.76;57.28;100500.55;1723160;81;27762;-65
2021/06/12 04:56:38;;;;;;;12.73;9.20;;;;;;;19.82;57.25;100500.53;1731555;80;25801;-65
2021/06/12 04:59:05;;;;;;;15.90;8.83;;;;;;;19.90;57.30;100503.96;1716022;81;25812;-65
2021/06/12 05:01:30;;;;;;;17.57;8.58;;;;;;;19.97;57.26;100500.59;1717154;81;25759;-65
2021/06/12 05:03:56;;;;;;;18.75;9.95;;;;;;;20.04;57.23;100490.05;1716307;81;25858;-65
2021/06/12 05:06:22;;;;;;;14.05;9.38;;;;;;;20.08;57.18;100490.16;1723780;81;27416;-65
2021/06/12 05:08:49;;;;;;;19.70;9.50;;;;;;;20.14;57.24;100486.91;1718852;81;25768;-65
2021/06/12 05:11:15;;;;;;;14.07;9.78;;;;;;;20.25;57.16;100488.21;1720936;81;25620;-65
2021/06/12 05:13:42;;;;;;;17.32;9.73;;;;;;;20.34;57.12;100486.06;1718324;81;25886;-65
2021/06/12 05:16:08;;;;;;;20.05;9.30;;;;;;;20.43;57.02;100480.34;1728782;81;25760;-66
2021/06/12 05:18:40;;;;;;;16.25;9.08;;;;;;;20.51;57.04;100478.31;1720308;81;27262;-65
2021/06/12 05:21:03;;;;;;;16.12;9.10;;;;;;;20.58;57.00;100479.01;1714122;80;26835;-65
2021/06/12 05:23:31;;;;;;;13.70;8.50;;;;;;;20.65;56.98;100475.25;1720138;80;25846;-65
2021/06/12 05:25:57;;;;;;;12.23;8.98;;;;;;;20.74;56.92;100479.88;1719336;80;25838;-65
2021/06/12 05:28:22;;;;;;;19.95;9.48;;;;;;;20.81;56.81;100481.03;1732349;80;25801;-66
2021/06/12 05:30:48;;;;;;;16.97;9.55;;;;;;;20.89;56.83;100478.98;1737944;79;29719;-66
2021/06/12 05:33:14;;;;;;;11.05;8.53;;;;;;;20.93;56.67;100474.99;1726573;80;26402;-66
2021/06/12 05:35:40;;;;;;;16.67;9.00;;;;;;;20.93;56.59;100476.36;1728927;80;25741;-65
2021/06/12 05:38:06;;;;;;;12.37;8.88;;;;;;;20.93;56.50;100473.12;1730627;80;26464;-66
2021/06/12 05:40:33;;;;;;;12.03;8.48;;;;;;;20.94;56.50;100463.95;1732056;80;25826;-66
2021/06/12 05:42:59;;;;;;;18.10;7.90;;;;;;;20.96;56.44;100463.31;1722565;80;27398;-66
2021/06/12 05:45:25;;;;;;;20.15;10.32;;;;;;;20.96;56.30;100462.45;1726036;80;25759;-66
2021/06/12 05:47:51;;;;;;;14.35;8.28;;;;;;;20.96;56.27;100463.81;1721284;80;25847;-66
2021/06/12 05:50:19;;;;;;;13.03;8.23;;;;;;;20.93;56.20;100466.31;1730697;80;25784;-65
2021/06/12 05:52:45;;;;;;;13.48;8.00;;;;;;;20.91;56.14;100457.92;1725429;80;25681;-66
2021/06/12 05:55:12;;;;;;;12.70;8.53;;;;;;;20.91;56.17;100464.23;1731560;80;27734;-66
2021/06/12 05:57:39;;;;;;;14.90;8.18;;;;;;;20.99;56.18;100458.09;1726751;80;27200;-65
2021/06/12 06:00:07;;;;;;;13.80;8.98;;;;;;;21.07;56.11;100464.58;1727275;80;25762;-66
2021/06/12 06:02:34;;;;;;;22.82;14.23;;;;;;;21.20;56.08;100460.25;1725692;80;25761;-66
2021/06/12 06:05:01;;;;;;;13.65;8.70;;;;;;;21.32;56.03;100452.85;1731618;80;25850;-66
2021/06/12 06:07:28;;;;;;;10.78;7.97;;;;;;;21.50;55.98;100447.08;1727379;80;27581;-66
2021/06/12 06:09:54;;;;;;;17.45;8.05;;;;;;;21.67;55.85;100445.02;1722221;80;25729;-66
2021/06/12 06:12:20;;;;;;;18.10;9.38;;;;;;;21.81;55.68;100435.54;1695548;82;25734;-66
2021/06/12 06:14:48;;;;;;;12.23;8.35;;;;;;;21.91;55.35;100438.27;1694232;83;25831;-65
2021/06/12 06:17:13;;;;;;;15.43;8.40;;;;;;;22.01;55.28;100434.53;1688337;82;25748;-66
2021/06/12 06:19:41;;;;;;;12.13;7.28;;;;;;;22.10;55.10;100441.52;1693624;82;27521;-65
2021/06/12 06:22:09;;;;;;;8.65;7.35;;;;;;;22.20;54.96;100434.18;1727212;80;25822;-67
2021/06/12 06:24:37;;;;;;;13.45;8.18;;;;;;;22.33;54.79;100426.54;1731157;80;25719;-65
2021/06/12 06:27:04;;;;;;;19.52;7.25;;;;;;;22.45;54.62;100425.86;1726305;80;26506;-65
2021/06/12 06:29:30;;;;;;;12.18;6.75;;;;;;;22.58;53.97;100431.36;1727779;80;25808;-65
2021/06/12 06:31:55;;;;;;;12.82;9.28;;;;;;;22.67;54.21;100432.34;1735081;80;29665;-65
2021/06/12 06:34:21;;;;;;;11.73;6.90;;;;;;;22.75;53.92;100428.35;1721811;80;25808;-65
2021/06/12 06:36:48;;;;;;;9.55;6.20;;;;;;;22.80;53.76;100424.70;1714903;81;25780;-66
2021/06/12 06:39:14;;;;;;;15.20;7.30;;;;;;;22.87;53.50;100421.72;1731554;80;26088;-65
2021/06/12 06:41:40;;;;;;;7.85;5.17;;;;;;;22.94;53.36;100425.57;1724956;80;25712;-65
2021/06/12 06:44:08;;;;;;;8.00;5.70;;;;;;;23.04;53.11;100420.05;1729747;80;27412;-64
2021/06/12 06:46:34;;;;;;;10.60;5.78;;;;;;;23.09;52.88;100408.66;1728241;80;26152;-65
2021/06/12 06:49:00;;;;;;;7.15;5.55;;;;;;;23.22;52.28;100407.79;1727012;80;25664;-66
2021/06/12 06:51:25;;;;;;;8.03;5.65;;;;;;;23.22;52.28;100407.79;1730975;80;25923;-65
2021/06/12 06:53:52;;;;;;;8.25;5.05;;;;;;;23.26;52.01;100404.59;1727379;80;25782;-65
2021/06/12 06:56:19;;;;;;;8.20;5.70;;;;;;;23.25;51.59;100408.34;1725747;80;29489;-67
2021/06/12 06:58:45;;;;;;;10.45;5.97;;;;;;;23.25;51.59;100408.34;1723160;80;26413;-66
2021/06/12 07:01:11;;;;;;;9.90;6.08;;;;;;;23.22;51.16;100403.69;1725198;80;25744;-66
2021/06/12 07:03:40;;;;;;;11.08;6.30;;;;;;;23.14;50.69;100403.59;1720771;80;25915;-66
2021/06/12 07:06:07;;;;;;;11.00;6.75;;;;;;;23.01;50.42;100408.56;1721734;80;25812;-66
2021/06/12 07:08:33;;;;;;;12.43;6.20;;;;;;;22.89;50.33;100401.06;1726296;80;27505;-66
2021/06/12 07:11:01;;;;;;;14.45;6.42;;;;;;;22.87;50.50;100398.48;1734669;80;25747;-65
2021/06/12 07:13:28;;;;;;;9.75;6.50;;;;;;;22.94;50.62;100390.54;1730192;80;25750;-66
2021/06/12 07:15:56;;;;;;;14.13;6.67;;;;;;;23.08;50.70;100393.27;1725843;80;26288;-66
2021/06/12 07:18:22;;;;;;;12.65;7.17;;;;;;;23.16;50.59;100386.53;1728274;80;25908;-66
2021/06/12 07:20:48;;;;;;;13.03;6.97;;;;;;;23.08;50.36;100389.17;1724709;80;27503;-66
2021/06/12 07:23:15;;;;;;;16.10;7.25;;;;;;;23.01;50.57;100394.39;1720256;80;26438;-64
2021/06/12 07:25:44;;;;;;;15.83;7.22;;;;;;;23.05;50.67;100392.20;1752710;80;25811;-66
2021/06/12 07:28:10;;;;;;;11.63;8.23;;;;;;;23.04;50.68;100398.69;1751962;80;25781;-64
2021/06/12 07:30:40;;;;;;;10.90;7.45;;;;;;;22.99;50.75;100395.91;1744923;80;26478;-67
2021/06/12 07:33:09;;;;;;;8.35;7.00;;;;;;;22.92;50.86;100400.26;1716160;82;27475;-66
2021/06/12 07:35:36;;;;;;;11.20;8.13;;;;;;;22.74;50.80;100391.61;1717518;82;25763;-66
2021/06/12 07:38:03;;;;;;;10.72;8.58;;;;;;;22.74;50.80;100391.61;1712103;82;25832;-65
2021/06/12 07:40:30;;;;;;;14.65;8.30;;;;;;;22.62;51.20;100400.00;1715904;81;25886;-65
2021/06/12 07:42:59;;;;;;;12.65;8.93;;;;;;;22.47;51.40;100394.66;1708781;82;25734;-65
2021/06/12 07:45:27;;;;;;;17.30;8.70;;;;;;;22.42;51.62;100394.75;1696589;83;27594;-66
2021/06/12 07:47:54;;;;;;;17.98;9.50;;;;;;;22.37;51.80;100394.34;1701516;82;25761;-65
2021/06/12 07:50:21;;;;;;;16.73;9.50;;;;;;;22.34;51.90;100396.35;1720057;82;26482;-65
2021/06/12 07:52:49;;;;;;;15.38;8.60;;;;;;;22.31;52.04;100393.06;1705096;83;26451;-64
2021/06/12 07:55:15;;;;;;;12.75;8.23;;;;;;;22.28;52.14;100402.41;1702566;83;25706;-65
2021/06/12 07:57:44;;;;;;;11.30;8.80;;;;;;;22.18;52.33;100400.70;1702248;83;27469;-65
2021/06/12 08:00:11;;;;;;;11.20;8.43;;;;;;;22.05;52.50;100392.83;1701417;83;26007;-64
2021/06/12 08:02:40;;;;;;;14.95;10.68;;;;;;;21.98;52.66;100406.66;1706421;83;25449;-64
2021/06/12 08:05:07;;;;;;;25.57;10.20;;;;;;;21.92;52.98;100407.25;1702951;83;26410;-65
2021/06/12 08:07:35;;;;;;;12.15;8.78;;;;;;;21.88;53.38;100413.50;1711483;82;26156;-65
2021/06/12 08:10:02;;;;;;;17.25;9.80;;;;;;;21.85;53.50;100405.59;1700558;83;27615;-65
2021/06/12 08:12:30;;;;;;;13.75;8.30;;;;;;;21.78;53.65;100409.91;1701115;83;25804;-65
2021/06/12 08:14:56;;;;;;;15.63;9.50;;;;;;;21.78;53.86;100404.45;1702513;82;25737;-66
2021/06/12 08:17:24;;;;;;;15.28;10.25;;;;;;;21.79;53.88;100409.41;1717097;82;25867;-64
2021/06/12 08:19:50;;;;;;;24.72;9.15;;;;;;;21.80;53.83;100408.40;1709666;82;25810;-65
2021/06/12 08:22:16;;;;;;;17.23;7.58;;;;;;;21.80;53.69;100410.63;1741780;80;27406;-66
2021/06/12 08:24:43;;;;;;;15.50;7.60;;;;;;;21.84;53.63;100418.02;1734543;80;25772;-64
2021/06/12 08:27:09;;;;;;;13.72;7.90;;;;;;;21.81;53.42;100421.04;1731666;81;25732;-64
2021/06/12 08:29:35;;;;;;;11.57;7.67;;;;;;;21.78;53.50;100419.45;1727388;81;26353;-64
2021/06/12 08:32:01;;;;;;;21.23;9.05;;;;;;;21.78;53.43;100419.45;1732320;81;25799;-66
2021/06/12 08:34:28;;;;;;;13.72;7.72;;;;;;;21.77;53.32;100422.33;1724322;82;27564;-66
2021/06/12 08:36:54;;;;;;;14.13;7.87;;;;;;;21.70;53.39;100411.99;1727244;81;27264;-66
2021/06/12 08:39:19;;;;;;;18.17;7.60;;;;;;;21.60;53.53;100419.81;1729004;81;25814;-66
2021/06/12 08:41:46;;;;;;;16.02;7.83;;;;;;;21.44;53.75;100414.05;1731754;81;25899;-64
2021/06/12 08:44:14;;;;;;;8.30;7.28;;;;;;;21.35;53.87;100419.85;1737339;80;26410;-66
2021/06/12 08:46:43;;;;;;;10.82;7.95;;;;;;;21.32;54.09;100411.45;1734752;81;27515;-66
2021/06/12 08:49:09;;;;;;;11.18;7.78;;;;;;;21.26;54.22;100413.37;1723051;81;25869;-65
2021/06/12 08:51:35;;;;;;;8.93;8.03;;;;;;;21.19;54.42;100420.86;1725402;81;25763;-65
2021/06/12 08:54:02;;;;;;;10.88;8.03;;;;;;;21.05;54.50;100414.80;1725099;81;25815;-64
2021/06/12 08:56:29;;;;;;;12.45;7.25;;;;;;;21.01;54.75;100419.30;1727059;81;25815;-64
2021/06/12 08:58:56;;;;;;;10.40;7.58;;;;;;;20.94;54.88;100423.09;1728102;81;27396;-64
2021/06/12 09:01:24;;;;;;;8.68;7.17;;;;;;;20.81;55.23;100430.63;1727088;82;25791;-64
2021/06/12 09:03:51;;;;;;;9.08;7.67;;;;;;;20.51;56.12;100423.36;1733465;80;25698;-64
2021/06/12 09:06:20;;;;;;;16.65;8.03;;;;;;;20.37;56.97;100428.62;1730012;82;26483;-66
2021/06/12 09:08:47;;;;;;;10.70;7.95;;;;;;;20.27;56.90;100428.20;1728532;82;26142;-63
2021/06/12 09:11:19;;;;;;;11.38;7.17;;;;;;;20.17;57.17;100429.50;1723786;82;27436;-64
2021/06/12 09:13:54;;;;;;;11.18;7.03;;;;;;;20.12;57.39;100418.65;1721739;81;25762;-64
2021/06/12 09:16:25;;;;;;;10.53;6.33;;;;;;;20.12;57.75;100422.23;1733735;82;25715;-64
2021/06/12 09:18:58;;;;;;;10.68;6.30;;;;;;;20.06;58.02;100410.52;1728278;82;26491;-65
2021/06/12 09:21:30;;;;;;;9.28;7.50;;;;;;;20.00;58.43;100408.33;1728491;81;25726;-64
2021/06/12 09:23:59;;;;;;;11.35;7.47;;;;;;;19.97;59.18;100412.67;1733437;81;27326;-67
2021/06/12 09:26:49;;;;;;;14.73;7.25;;;;;;;19.96;59.29;100414.53;1735252;81;25826;-68
2021/06/12 09:29:19;;;;;;;13.70;7.77;;;;;;;20.01;59.64;100415.50;1732494;81;25708;-69
2021/06/12 09:31:51;;;;;;;11.93;6.50;;;;;;;20.03;60.13;100423.02;1737028;81;26457;-68
2021/06/12 09:34:25;;;;;;;11.63;8.05;;;;;;;20.01;60.43;100425.02;1728730;81;25872;-66
2021/06/12 09:36:54;;;;;;;9.00;7.12;;;;;;;19.98;60.45;100417.98;1733452;82;27534;-66
2021/06/12 09:39:24;;;;;;;11.85;6.92;;;;;;;20.12;60.50;100412.70;1736137;81;25766;-67
2021/06/12 09:41:54;;;;;;;8.35;7.25;;;;;;;20.30;60.43;100410.24;1747143;80;25865;-67
2021/06/12 09:44:49;;;;;;;12.90;7.33;;;;;;;20.41;60.49;100411.05;1731779;82;25771;-67
2021/06/12 09:47:23;;;;;;;16.87;8.43;;;;;;;20.44;60.63;100421.31;1726703;81;25740;-67
2021/06/12 09:49:53;;;;;;;11.70;6.72;;;;;;;20.44;60.66;100414.51;1734939;82;28188;-69
2021/06/12 09:52:24;;;;;;;11.08;7.12;;;;;;;20.46;60.76;100407.06;1731315;81;25718;-71
2021/06/12 09:54:52;;;;;;;9.75;7.83;;;;;;;20.55;60.78;100415.78;1729789;81;25836;-67
2021/06/12 09:57:23;;;;;;;9.08;7.05;;;;;;;20.57;60.91;100423.31;1730292;81;25817;-67
2021/06/12 09:59:56;;;;;;;6.92;6.22;;;;;;;20.58;60.87;100415.02;1735139;80;25826;-67
2021/06/12 10:02:57;;;;;;;7.72;6.87;;;;;;;20.55;60.96;100423.95;1729587;81;27428;-68
2021/06/12 10:05:15;;;;;;;13.95;6.65;;;;;;;20.56;61.15;100412.06;1727679;81;25687;-67
2021/06/12 10:07:42;;;;;;;9.05;6.67;;;;;;;20.56;61.04;100405.25;1728059;81;25759;-67
2021/06/12 10:10:16;;;;;;;8.30;6.22;;;;;;;20.65;61.07;100413.47;1733616;80;25808;-68
2021/06/12 10:12:43;;;;;;;9.30;6.92;;;;;;;20.69;60.94;100412.70;1732248;81;25843;-68
2021/06/12 10:15:12;;;;;;;7.83;5.70;;;;;;;20.75;61.05;100417.59;1729306;80;27452;-68
2021/06/12 10:17:48;;;;;;;7.37;6.28;;;;;;;20.67;61.21;100409.25;1729112;82;25916;-67
2021/06/12 10:20:19;;;;;;;8.25;6.80;;;;;;;20.60;61.45;100414.88;1721607;81;25822;-69
2021/06/12 10:22:46;;;;;;;9.45;6.65;;;;;;;20.56;61.50;100433.84;1714896;82;25767;-70
2021/06/12 10:25:16;;;;;;;7.67;6.83;;;;;;;20.57;61.41;100408.34;1730284;80;26137;-67
2021/06/12 10:27:43;;;;;;;7.97;6.35;;;;;;;20.61;61.52;100403.84;1725925;80;29641;-69
2021/06/12 10:30:13;;;;;;;11.65;6.85;;;;;;;20.64;61.51;100406.30;1724882;80;26576;-70
2021/06/12 10:32:46;;;;;;;8.95;6.30;;;;;;;20.72;61.64;100402.89;1726943;80;25704;-67
2021/06/12 10:35:22;;;;;;;13.58;5.70;;;;;;;20.79;61.80;100400.48;1729534;80;25781;-69
2021/06/12 10:37:59;;;;;;;9.53;5.92;;;;;;;20.70;61.79;100400.80;1730895;80;25989;-72
2021/06/12 10:40:53;;;;;;;9.25;4.97;;;;;;;20.67;61.99;100402.44;1731632;80;27392;-70
2021/06/12 10:43:26;;;;;;;8.28;5.65;;;;;;;20.51;62.53;100419.77;1727405;80;26441;-69
2021/06/12 10:46:12;;;;;;;9.90;6.58;;;;;;;20.37;62.85;100416.37;1728749;80;25797;-70
2021/06/12 10:48:55;;;;;;;6.33;5.67;;;;;;;20.30;62.85;100410.24;1730568;80;25814;-68
2021/06/12 10:51:33;;;;;;;10.50;7.35;;;;;;;20.32;63.84;100413.19;1735194;80;26180;-73
2021/06/12 10:56:48;;;;;;;6.85;6.25;;;;;;;20.08;64.72;100415.33;1724198;80;25771;-68
2021/06/12 10:59:43;;;;;;;9.55;8.18;;;;;;;19.94;64.57;100395.25;1736771;80;25671;-70
2021/06/12 11:02:42;;;;;;;9.30;7.60;;;;;;;19.85;64.66;100391.97;1731099;80;26099;-70
2021/06/12 11:05:14;;;;;;;11.43;7.55;;;;;;;19.71;65.18;100387.70;1732486;80;25558;-67
2021/06/12 11:07:45;;;;;;;10.70;8.00;;;;;;;19.58;65.42;100382.95;1727608;80;27162;-68
2021/06/12 11:10:18;;;;;;;9.28;8.13;;;;;;;19.48;65.55;100368.38;1731923;80;25818;-67
2021/06/12 11:12:53;;;;;;;7.35;6.55;;;;;;;19.39;65.91;100357.29;1730111;80;25782;-66
2021/06/12 11:15:30;;;;;;;10.82;8.23;;;;;;;19.33;66.51;100346.08;1730917;80;26073;-66
2021/06/12 11:18:23;;;;;;;11.22;8.10;;;;;;;19.44;66.59;100352.33;1729486;80;25311;-67
2021/06/12 11:21:07;;;;;;;11.65;8.58;;;;;;;19.63;66.67;100348.07;1732220;80;27371;-66
2021/06/12 11:23:48;;;;;;;11.10;7.97;;;;;;;19.87;66.93;100341.02;1740082;80;25746;-67
2021/06/12 11:26:16;;;;;;;14.35;8.98;;;;;;;20.10;66.87;100326.27;1738915;80;26159;-69
2021/06/12 11:28:44;;;;;;;13.35;9.83;;;;;;;20.34;66.77;100328.17;1735373;80;27908;-67
2021/06/12 11:31:33;;;;;;;10.00;8.58;;;;;;;20.49;66.80;100316.95;1741634;80;25893;-70
2021/06/12 11:34:23;;;;;;;10.98;9.88;;;;;;;20.61;66.94;100309.03;1731593;80;28078;-66